This is the latest recevied weather packets stored in our database for station/object PI8ANH-13. If no packets are shown the sender has not sent any weather packets the latest 10 day(s).
| Time | Temp. | Humidity | Pressure | Rain* | Wind** | Luminosity | Snow |
|---|---|---|---|---|---|---|---|
| 1787575498 | 21.11° C | 49% | 1021 hPa | - | - | - | - |
| 1787574598 | 18.89° C | 56% | 1022 hPa | - | - | - | - |
| 1787573698 | 18.89° C | 56% | 1022 hPa | - | - | - | - |
| 1787572798 | 18.89° C | 52% | 1022 hPa | - | - | - | - |
| 1787571898 | 18.89° C | 52% | 1022 hPa | - | - | - | - |
| 1787570998 | 20° C | 49% | 1022 hPa | - | - | - | - |
| 1787570098 | 20° C | 49% | 1022 hPa | - | - | - | - |
| 1787569198 | 20° C | 49% | 1022 hPa | - | - | - | - |
| 1787568298 | 20° C | 49% | 1022 hPa | - | - | - | - |
| 1787567398 | 18.89° C | 56% | 1023 hPa | - | - | - | - |
| 1787566498 | 18.89° C | 56% | 1023 hPa | - | - | - | - |
| 1787565598 | 17.22° C | 63% | 1023 hPa | - | - | - | - |
| 1787564698 | 17.22° C | 63% | 1023 hPa | - | - | - | - |
| 1787563798 | 18.89° C | 56% | 1023 hPa | - | - | - | - |
| 1787562898 | 18.89° C | 56% | 1023 hPa | - | - | - | - |
| 1787561998 | 17.78° C | 60% | 1023 hPa | - | - | - | - |
| 1787561098 | 17.78° C | 60% | 1023 hPa | - | - | - | - |
| 1787560198 | 17.22° C | 68% | 1023 hPa | - | - | - | - |
| 1787559298 | 17.22° C | 68% | 1023 hPa | - | - | - | - |
| 1787558398 | 16.11° C | 72% | 1023 hPa | - | - | - | - |
| 1787557498 | 16.11° C | 72% | 1023 hPa | - | - | - | - |
| 1787556598 | 15° C | 82% | 1023 hPa | - | - | - | - |
| 1787555698 | 15° C | 82% | 1023 hPa | - | - | - | - |
| 1787554798 | 12.22° C | 94% | 1024 hPa | - | - | - | - |
| 1787553898 | 12.22° C | 94% | 1024 hPa | - | - | - | - |
* Rain since midnight (hover to see other rain measurements)
** Current wind speed in m/s (hover to see current wind gust speed)